sensor_id;sensor_type;location;lat;lon;timestamp;P1;durP1;ratioP1;P2;durP2;ratioP2
66663;SDS011;59683;51.428;-1.994;2023-05-17T06:07:29;9.02;;;4.50;;
66663;SDS011;59683;51.428;-1.994;2023-05-17T06:09:54;14.07;;;4.60;;
66663;SDS011;59683;51.428;-1.994;2023-05-17T06:12:20;9.00;;;4.43;;
66663;SDS011;59683;51.428;-1.994;2023-05-17T06:14:45;12.60;;;4.30;;
66663;SDS011;59683;51.428;-1.994;2023-05-17T06:17:10;9.77;;;4.17;;
66663;SDS011;59683;51.428;-1.994;2023-05-17T06:19:36;11.70;;;4.03;;
66663;SDS011;59683;51.428;-1.994;2023-05-17T06:22:01;11.87;;;4.30;;
66663;SDS011;59683;51.428;-1.994;2023-05-17T06:24:27;11.77;;;4.33;;
66663;SDS011;59683;51.428;-1.994;2023-05-17T06:26:52;8.37;;;3.67;;
66663;SDS011;59683;51.428;-1.994;2023-05-17T06:29:17;15.20;;;4.87;;
66663;SDS011;59683;51.428;-1.994;2023-05-17T06:31:43;13.87;;;5.17;;
66663;SDS011;59683;51.428;-1.994;2023-05-17T06:34:08;11.73;;;4.13;;
66663;SDS011;59683;51.428;-1.994;2023-05-17T06:36:34;12.97;;;4.20;;
66663;SDS011;59683;51.428;-1.994;2023-05-17T06:38:59;18.03;;;4.40;;
66663;SDS011;59683;51.428;-1.994;2023-05-17T06:41:24;13.17;;;3.90;;
66663;SDS011;59683;51.428;-1.994;2023-05-17T06:43:50;9.10;;;3.53;;
66663;SDS011;59683;51.428;-1.994;2023-05-17T06:46:15;9.37;;;3.20;;
66663;SDS011;59683;51.428;-1.994;2023-05-17T06:48:41;16.67;;;4.17;;
66663;SDS011;59683;51.428;-1.994;2023-05-17T06:51:06;6.83;;;3.50;;
66663;SDS011;59683;51.428;-1.994;2023-05-17T06:53:31;10.33;;;3.30;;
66663;SDS011;59683;51.428;-1.994;2023-05-17T06:55:57;10.40;;;3.47;;
66663;SDS011;59683;51.428;-1.994;2023-05-17T06:58:22;11.63;;;3.57;;
66663;SDS011;59683;51.428;-1.994;2023-05-17T07:00:47;8.07;;;3.03;;
66663;SDS011;59683;51.428;-1.994;2023-05-17T07:03:13;10.07;;;3.53;;
66663;SDS011;59683;51.428;-1.994;2023-05-17T07:05:38;14.70;;;3.87;;
66663;SDS011;59683;51.428;-1.994;2023-05-17T07:08:04;8.13;;;3.00;;
66663;SDS011;59683;51.428;-1.994;2023-05-17T07:10:30;12.20;;;3.40;;
66663;SDS011;59683;51.428;-1.994;2023-05-17T07:12:55;12.37;;;3.27;;
66663;SDS011;59683;51.428;-1.994;2023-05-17T07:15:21;11.13;;;3.03;;
66663;SDS011;59683;51.428;-1.994;2023-05-17T07:17:46;10.23;;;3.17;;
66663;SDS011;59683;51.428;-1.994;2023-05-17T07:20:11;9.07;;;3.63;;
66663;SDS011;59683;51.428;-1.994;2023-05-17T07:22:37;10.07;;;3.30;;
66663;SDS011;59683;51.428;-1.994;2023-05-17T07:25:03;10.13;;;3.13;;
66663;SDS011;59683;51.428;-1.994;2023-05-17T07:27:29;11.20;;;3.30;;
66663;SDS011;59683;51.428;-1.994;2023-05-17T07:29:54;9.07;;;3.40;;
66663;SDS011;59683;51.428;-1.994;2023-05-17T07:32:20;10.43;;;3.00;;
66663;SDS011;59683;51.428;-1.994;2023-05-17T07:34:45;7.77;;;3.00;;
66663;SDS011;59683;51.428;-1.994;2023-05-17T07:37:10;7.37;;;3.17;;
66663;SDS011;59683;51.428;-1.994;2023-05-17T07:39:36;8.53;;;3.00;;
66663;SDS011;59683;51.428;-1.994;2023-05-17T07:42:01;11.87;;;3.23;;
66663;SDS011;59683;51.428;-1.994;2023-05-17T07:44:28;9.13;;;2.60;;
66663;SDS011;59683;51.428;-1.994;2023-05-17T07:46:54;13.17;;;3.23;;
66663;SDS011;59683;51.428;-1.994;2023-05-17T07:49:19;8.80;;;2.60;;
66663;SDS011;59683;51.428;-1.994;2023-05-17T07:51:47;10.27;;;2.83;;
66663;SDS011;59683;51.428;-1.994;2023-05-17T07:54:20;11.07;;;3.97;;
66663;SDS011;59683;51.428;-1.994;2023-05-17T07:56:48;11.10;;;3.33;;
66663;SDS011;59683;51.428;-1.994;2023-05-17T07:59:14;6.40;;;3.10;;
66663;SDS011;59683;51.428;-1.994;2023-05-17T08:01:39;7.60;;;2.80;;
66663;SDS011;59683;51.428;-1.994;2023-05-17T08:04:04;14.60;;;3.03;;
66663;SDS011;59683;51.428;-1.994;2023-05-17T08:06:30;7.97;;;2.70;;
66663;SDS011;59683;51.428;-1.994;2023-05-17T08:08:55;6.13;;;2.30;;
66663;SDS011;59683;51.428;-1.994;2023-05-17T08:11:21;11.23;;;2.60;;
66663;SDS011;59683;51.428;-1.994;2023-05-17T08:13:46;9.93;;;2.77;;
66663;SDS011;59683;51.428;-1.994;2023-05-17T08:16:12;10.50;;;2.90;;
66663;SDS011;59683;51.428;-1.994;2023-05-17T08:18:37;9.30;;;2.60;;
66663;SDS011;59683;51.428;-1.994;2023-05-17T08:21:02;8.63;;;3.17;;
66663;SDS011;59683;51.428;-1.994;2023-05-17T08:23:28;11.67;;;3.27;;
66663;SDS011;59683;51.428;-1.994;2023-05-17T08:25:54;13.17;;;3.87;;
66663;SDS011;59683;51.428;-1.994;2023-05-17T08:28:20;10.60;;;2.90;;
66663;SDS011;59683;51.428;-1.994;2023-05-17T08:30:46;6.83;;;2.50;;
66663;SDS011;59683;51.428;-1.994;2023-05-17T08:33:11;9.40;;;2.97;;
66663;SDS011;59683;51.428;-1.994;2023-05-17T08:35:37;6.87;;;2.90;;
66663;SDS011;59683;51.428;-1.994;2023-05-17T08:38:02;8.40;;;2.70;;
66663;SDS011;59683;51.428;-1.994;2023-05-17T08:40:28;8.80;;;3.23;;
66663;SDS011;59683;51.428;-1.994;2023-05-17T09:23:59;8.30;;;3.03;;
66663;SDS011;59683;51.428;-1.994;2023-05-17T09:26:28;9.60;;;2.88;;
66663;SDS011;59683;51.428;-1.994;2023-05-17T09:29:05;9.32;;;3.05;;
66663;SDS011;59683;51.428;-1.994;2023-05-17T09:31:32;7.57;;;2.47;;
66663;SDS011;59683;51.428;-1.994;2023-05-17T10:10:35;4.73;;;1.80;;
66663;SDS011;59683;51.428;-1.994;2023-05-17T10:48:42;7.10;;;2.50;;
66663;SDS011;59683;51.428;-1.994;2023-05-17T10:51:09;7.00;;;2.92;;
66663;SDS011;59683;51.428;-1.994;2023-05-17T10:56:52;6.18;;;2.35;;
66663;SDS011;59683;51.428;-1.994;2023-05-17T11:31:32;4.90;;;1.80;;
66663;SDS011;59683;51.428;-1.994;2023-05-17T11:33:58;6.82;;;2.22;;
66663;SDS011;59683;51.428;-1.994;2023-05-17T11:36:25;4.28;;;1.85;;
66663;SDS011;59683;51.428;-1.994;2023-05-17T11:39:12;3.70;;;1.73;;
66663;SDS011;59683;51.428;-1.994;2023-05-17T11:41:50;4.57;;;2.08;;
66663;SDS011;59683;51.428;-1.994;2023-05-17T11:44:26;6.25;;;1.83;;
66663;SDS011;59683;51.428;-1.994;2023-05-17T11:47:06;5.72;;;1.88;;
66663;SDS011;59683;51.428;-1.994;2023-05-17T11:49:36;3.75;;;1.58;;
66663;SDS011;59683;51.428;-1.994;2023-05-17T11:52:03;5.28;;;2.08;;
66663;SDS011;59683;51.428;-1.994;2023-05-17T11:54:29;7.90;;;2.15;;
66663;SDS011;59683;51.428;-1.994;2023-05-17T11:56:55;7.75;;;2.50;;
66663;SDS011;59683;51.428;-1.994;2023-05-17T11:59:23;5.10;;;2.25;;
66663;SDS011;59683;51.428;-1.994;2023-05-17T12:01:48;4.07;;;1.80;;
66663;SDS011;59683;51.428;-1.994;2023-05-17T12:07:37;5.22;;;1.63;;
66663;SDS011;59683;51.428;-1.994;2023-05-17T12:10:03;7.03;;;1.67;;
66663;SDS011;59683;51.428;-1.994;2023-05-17T12:12:30;2.92;;;1.33;;
66663;SDS011;59683;51.428;-1.994;2023-05-17T12:14:56;4.13;;;1.70;;
66663;SDS011;59683;51.428;-1.994;2023-05-17T12:17:26;3.90;;;1.80;;
66663;SDS011;59683;51.428;-1.994;2023-05-17T12:42:12;3.47;;;1.33;;
66663;SDS011;59683;51.428;-1.994;2023-05-17T12:44:37;5.95;;;1.35;;
66663;SDS011;59683;51.428;-1.994;2023-05-17T12:47:03;6.40;;;1.85;;
66663;SDS011;59683;51.428;-1.994;2023-05-17T12:49:28;4.30;;;1.60;;
66663;SDS011;59683;51.428;-1.994;2023-05-17T12:51:54;3.85;;;1.40;;
66663;SDS011;59683;51.428;-1.994;2023-05-17T13:52:31;6.25;;;2.50;;
66663;SDS011;59683;51.428;-1.994;2023-05-17T13:54:57;6.18;;;2.63;;
66663;SDS011;59683;51.428;-1.994;2023-05-17T13:57:22;7.72;;;2.70;;
66663;SDS011;59683;51.428;-1.994;2023-05-17T13:59:47;5.82;;;2.38;;
66663;SDS011;59683;51.428;-1.994;2023-05-17T14:02:13;6.10;;;2.10;;
66663;SDS011;59683;51.428;-1.994;2023-05-17T14:04:57;5.78;;;2.28;;
66663;SDS011;59683;51.428;-1.994;2023-05-17T14:55:19;6.25;;;2.60;;
66663;SDS011;59683;51.428;-1.994;2023-05-17T14:57:44;6.20;;;2.80;;
66663;SDS011;59683;51.428;-1.994;2023-05-17T15:00:10;4.50;;;2.55;;
66663;SDS011;59683;51.428;-1.994;2023-05-17T15:02:36;5.85;;;2.78;;
66663;SDS011;59683;51.428;-1.994;2023-05-17T15:05:02;5.47;;;2.55;;
66663;SDS011;59683;51.428;-1.994;2023-05-17T15:56:49;37.43;;;6.77;;
66663;SDS011;59683;51.428;-1.994;2023-05-17T15:59:15;4.75;;;1.90;;
66663;SDS011;59683;51.428;-1.994;2023-05-17T16:05:03;5.45;;;2.22;;
66663;SDS011;59683;51.428;-1.994;2023-05-17T16:07:29;5.18;;;2.50;;
66663;SDS011;59683;51.428;-1.994;2023-05-17T16:09:55;5.80;;;2.60;;
66663;SDS011;59683;51.428;-1.994;2023-05-17T20:43:09;14.77;;;6.93;;
66663;SDS011;59683;51.428;-1.994;2023-05-17T20:45:35;15.00;;;6.70;;
66663;SDS011;59683;51.428;-1.994;2023-05-17T20:48:01;82.93;;;26.42;;
66663;SDS011;59683;51.428;-1.994;2023-05-17T20:50:27;21.03;;;9.90;;
66663;SDS011;59683;51.428;-1.994;2023-05-17T20:52:53;46.17;;;16.40;;
66663;SDS011;59683;51.428;-1.994;2023-05-17T20:55:18;98.17;;;35.00;;
66663;SDS011;59683;51.428;-1.994;2023-05-17T20:57:43;74.73;;;29.53;;
66663;SDS011;59683;51.428;-1.994;2023-05-17T21:00:10;49.90;;;19.75;;
66663;SDS011;59683;51.428;-1.994;2023-05-17T21:02:36;14.33;;;9.13;;
66663;SDS011;59683;51.428;-1.994;2023-05-17T21:05:02;18.25;;;9.73;;
66663;SDS011;59683;51.428;-1.994;2023-05-17T21:07:28;18.90;;;7.70;;
66663;SDS011;59683;51.428;-1.994;2023-05-17T21:09:54;13.53;;;7.87;;
66663;SDS011;59683;51.428;-1.994;2023-05-17T21:12:20;13.27;;;6.65;;
66663;SDS011;59683;51.428;-1.994;2023-05-17T21:14:46;12.20;;;6.77;;
66663;SDS011;59683;51.428;-1.994;2023-05-17T21:17:11;11.67;;;7.10;;
66663;SDS011;59683;51.428;-1.994;2023-05-17T21:19:36;11.07;;;6.80;;
66663;SDS011;59683;51.428;-1.994;2023-05-17T21:22:02;12.50;;;7.00;;
66663;SDS011;59683;51.428;-1.994;2023-05-17T21:24:27;13.33;;;7.20;;
66663;SDS011;59683;51.428;-1.994;2023-05-17T21:26:53;15.90;;;7.70;;
66663;SDS011;59683;51.428;-1.994;2023-05-17T21:29:18;13.83;;;7.67;;
66663;SDS011;59683;51.428;-1.994;2023-05-17T21:31:43;14.07;;;8.03;;
66663;SDS011;59683;51.428;-1.994;2023-05-17T21:34:09;13.03;;;7.80;;
66663;SDS011;59683;51.428;-1.994;2023-05-17T21:36:35;17.07;;;7.57;;
66663;SDS011;59683;51.428;-1.994;2023-05-17T21:39:00;14.47;;;7.70;;
66663;SDS011;59683;51.428;-1.994;2023-05-17T21:41:25;17.63;;;8.20;;
66663;SDS011;59683;51.428;-1.994;2023-05-17T21:43:51;14.10;;;8.07;;
66663;SDS011;59683;51.428;-1.994;2023-05-17T21:46:16;11.63;;;7.87;;
66663;SDS011;59683;51.428;-1.994;2023-05-17T21:48:48;15.85;;;8.18;;
66663;SDS011;59683;51.428;-1.994;2023-05-17T21:51:13;15.33;;;8.10;;
66663;SDS011;59683;51.428;-1.994;2023-05-17T22:11:43;16.48;;;8.68;;
66663;SDS011;59683;51.428;-1.994;2023-05-17T22:24:24;15.48;;;7.85;;
